createdAt,value
2022-11-30T00:00:34.369Z,5.80
2022-11-30T00:03:08.676Z,5.80
2022-11-30T00:05:41.265Z,5.80
2022-11-30T00:08:14.047Z,5.80
2022-11-30T00:10:46.617Z,5.80
2022-11-30T00:13:19.090Z,5.80
2022-11-30T00:15:52.433Z,5.80
2022-11-30T00:18:25.114Z,5.90
2022-11-30T00:21:02.408Z,5.90
2022-11-30T00:23:37.376Z,5.90
2022-11-30T00:26:13.155Z,6.00
2022-11-30T00:28:46.282Z,6.00
2022-11-30T00:31:19.981Z,6.00
2022-11-30T00:33:52.613Z,6.00
2022-11-30T00:36:25.207Z,6.00
2022-11-30T00:38:57.639Z,6.00
2022-11-30T00:41:30.159Z,6.00
2022-11-30T00:44:02.693Z,6.00
2022-11-30T00:46:35.295Z,6.00
2022-11-30T00:49:08.002Z,6.00
2022-11-30T00:51:40.770Z,6.10
2022-11-30T00:54:13.321Z,6.00
2022-11-30T00:56:46.038Z,6.10
2022-11-30T00:59:18.565Z,6.10
2022-11-30T01:01:51.131Z,6.10
2022-11-30T01:04:23.601Z,6.10
2022-11-30T01:06:56.176Z,6.00
2022-11-30T01:09:28.705Z,6.10
2022-11-30T01:12:01.259Z,6.10
2022-11-30T01:14:33.790Z,6.10
2022-11-30T01:17:06.334Z,6.00
2022-11-30T01:19:38.839Z,6.10
2022-11-30T01:22:11.497Z,6.00
2022-11-30T01:24:44.163Z,6.10
2022-11-30T01:27:16.812Z,6.10
2022-11-30T01:29:49.368Z,6.10
2022-11-30T01:32:22.184Z,6.10
2022-11-30T01:34:54.949Z,6.10
2022-11-30T01:37:30.422Z,6.00
2022-11-30T01:40:02.944Z,6.10
2022-11-30T01:42:38.199Z,6.10
2022-11-30T01:45:13.542Z,6.00
2022-11-30T01:47:53.076Z,6.00
2022-11-30T01:50:32.802Z,6.10
2022-11-30T01:53:09.817Z,6.10
2022-11-30T01:55:47.379Z,6.10
2022-11-30T01:58:26.378Z,6.10
2022-11-30T02:01:00.638Z,6.10
2022-11-30T02:03:40.857Z,6.10
2022-11-30T02:06:14.832Z,6.10
2022-11-30T02:08:47.582Z,6.10
2022-11-30T02:11:20.288Z,6.10
2022-11-30T02:14:18.255Z,6.00
2022-11-30T02:17:19.504Z,6.00
2022-11-30T02:20:09.615Z,6.00
2022-11-30T02:22:52.428Z,6.00
2022-11-30T02:25:26.884Z,6.00
2022-11-30T02:28:16.220Z,6.00
2022-11-30T02:30:52.704Z,6.00
2022-11-30T02:33:29.696Z,6.00
2022-11-30T02:36:06.453Z,6.00
2022-11-30T02:38:40.627Z,6.00
2022-11-30T02:41:13.091Z,5.90
2022-11-30T02:43:45.887Z,6.00
2022-11-30T02:46:40.387Z,5.90
2022-11-30T02:49:24.480Z,5.90
2022-11-30T02:51:58.292Z,5.90
2022-11-30T02:54:30.875Z,5.90
2022-11-30T02:57:03.748Z,5.90
2022-11-30T02:59:36.550Z,5.90
2022-11-30T03:02:09.195Z,6.00
2022-11-30T03:04:42.089Z,6.00
2022-11-30T03:07:14.711Z,5.90
2022-11-30T03:09:47.254Z,5.90
2022-11-30T03:12:19.858Z,6.00
2022-11-30T03:14:52.589Z,6.00
2022-11-30T03:17:25.088Z,6.00
2022-11-30T03:19:57.546Z,6.00
2022-11-30T03:22:30.175Z,6.00
2022-11-30T03:25:02.629Z,6.00
2022-11-30T03:27:35.242Z,6.00
2022-11-30T03:30:08.606Z,6.00
2022-11-30T03:32:41.439Z,6.00
2022-11-30T03:35:13.911Z,6.00
2022-11-30T03:37:47.572Z,6.00
2022-11-30T03:40:20.124Z,6.00
2022-11-30T03:42:52.949Z,6.00
2022-11-30T03:45:25.506Z,6.00
2022-11-30T03:47:58.086Z,6.00
2022-11-30T03:50:30.630Z,6.00
2022-11-30T03:53:03.254Z,6.00
2022-11-30T03:55:35.790Z,6.00
2022-11-30T03:58:08.657Z,6.00
2022-11-30T04:00:41.402Z,6.00
2022-11-30T04:03:14.373Z,6.00
2022-11-30T04:05:47.896Z,6.00
2022-11-30T04:08:20.758Z,6.00
2022-11-30T04:10:55.288Z,6.00
2022-11-30T04:13:29.697Z,6.10
2022-11-30T04:16:02.665Z,6.10
2022-11-30T04:18:37.041Z,6.00
2022-11-30T04:21:10.241Z,6.10
2022-11-30T04:23:43.171Z,6.10
2022-11-30T04:26:17.529Z,6.10
2022-11-30T04:28:50.422Z,6.10
2022-11-30T04:31:23.181Z,6.10
2022-11-30T04:33:56.117Z,6.10
2022-11-30T04:36:29.112Z,6.10
2022-11-30T04:39:02.012Z,6.00
2022-11-30T04:41:34.896Z,6.10
2022-11-30T04:44:08.023Z,6.10
2022-11-30T04:46:40.938Z,6.10
2022-11-30T04:49:13.701Z,6.10
2022-11-30T04:51:46.253Z,6.10
2022-11-30T04:54:19.068Z,6.10
2022-11-30T04:56:51.640Z,6.10
2022-11-30T04:59:24.199Z,6.10
2022-11-30T05:01:56.794Z,6.10
2022-11-30T05:04:29.511Z,6.10
2022-11-30T05:07:01.989Z,6.10
2022-11-30T05:09:34.523Z,6.10
2022-11-30T05:12:07.236Z,6.20
2022-11-30T05:14:39.845Z,6.20
2022-11-30T05:17:12.568Z,6.10
2022-11-30T05:19:45.129Z,6.20
2022-11-30T05:22:17.911Z,6.10
2022-11-30T05:24:50.494Z,6.10
2022-11-30T05:27:23.264Z,6.20
2022-11-30T05:29:55.828Z,6.10
2022-11-30T05:32:28.417Z,6.10
2022-11-30T05:35:00.979Z,6.10
2022-11-30T05:37:33.532Z,6.10
2022-11-30T05:40:07.228Z,6.00
2022-11-30T05:42:39.857Z,6.00
2022-11-30T05:45:12.771Z,6.10
2022-11-30T05:47:45.375Z,6.00
2022-11-30T05:50:18.191Z,6.00
2022-11-30T05:52:56.523Z,6.00
2022-11-30T05:55:30.090Z,6.00
2022-11-30T05:58:02.781Z,6.00
2022-11-30T06:00:35.475Z,6.00
2022-11-30T06:03:08.090Z,6.00
2022-11-30T06:05:40.824Z,6.00
2022-11-30T06:08:13.570Z,6.00
2022-11-30T06:10:46.589Z,6.00
2022-11-30T06:13:19.230Z,6.00
2022-11-30T06:15:51.816Z,6.00
2022-11-30T06:18:24.425Z,6.00
2022-11-30T06:21:08.205Z,6.00
2022-11-30T06:23:40.861Z,6.00
2022-11-30T06:26:13.549Z,5.90
2022-11-30T06:28:48.512Z,6.00
2022-11-30T06:31:21.579Z,6.00
2022-11-30T06:33:57.952Z,6.00
2022-11-30T06:36:35.718Z,6.00
2022-11-30T06:39:10.634Z,6.00
2022-11-30T06:41:43.257Z,5.90
2022-11-30T06:44:15.969Z,5.90
2022-11-30T06:46:48.605Z,6.00
2022-11-30T06:49:21.212Z,6.00
2022-11-30T06:51:54.019Z,6.00
2022-11-30T06:54:26.549Z,6.00
2022-11-30T06:56:59.180Z,6.00
2022-11-30T06:59:31.649Z,6.00
2022-11-30T07:02:08.806Z,6.00
2022-11-30T07:04:43.484Z,6.00
2022-11-30T07:07:16.612Z,6.00
2022-11-30T07:09:50.916Z,6.00
2022-11-30T07:12:24.174Z,6.10
2022-11-30T07:14:56.691Z,6.10
2022-11-30T07:17:29.277Z,6.10
2022-11-30T07:20:01.988Z,6.10
2022-11-30T07:22:34.556Z,6.10
2022-11-30T07:25:23.267Z,6.10
2022-11-30T07:27:56.287Z,6.20
2022-11-30T07:30:31.293Z,6.20
2022-11-30T07:33:04.425Z,6.20
2022-11-30T07:35:36.993Z,6.10
2022-11-30T07:38:10.039Z,6.10
2022-11-30T07:40:42.913Z,6.10
2022-11-30T07:43:16.106Z,6.10
2022-11-30T07:45:53.426Z,6.10
2022-11-30T07:48:26.094Z,6.10
2022-11-30T07:51:10.678Z,6.10
2022-11-30T07:53:43.514Z,6.10
2022-11-30T07:56:18.990Z,6.00
2022-11-30T07:58:55.600Z,6.00
2022-11-30T08:01:32.520Z,6.00
2022-11-30T08:04:06.971Z,6.00
2022-11-30T08:06:39.850Z,5.90
2022-11-30T08:09:17.803Z,5.90
2022-11-30T08:11:52.408Z,5.90
2022-11-30T08:14:25.312Z,5.90
2022-11-30T08:16:57.884Z,6.00
2022-11-30T08:19:30.469Z,6.00
2022-11-30T08:22:03.263Z,6.00
2022-11-30T08:24:36.008Z,6.00
2022-11-30T08:27:08.639Z,6.10
2022-11-30T08:29:41.217Z,6.10
2022-11-30T08:32:13.779Z,6.10
2022-11-30T08:34:48.155Z,6.10
2022-11-30T08:37:21.064Z,6.20
2022-11-30T08:39:53.648Z,6.20
2022-11-30T08:42:26.174Z,6.20
2022-11-30T08:44:59.052Z,6.20
2022-11-30T08:47:31.884Z,6.20
2022-11-30T08:50:04.985Z,6.30
2022-11-30T08:52:37.498Z,6.30
2022-11-30T08:55:10.324Z,6.30
2022-11-30T08:57:43.288Z,6.30
2022-11-30T09:00:17.393Z,6.30
2022-11-30T09:02:50.005Z,6.40
2022-11-30T09:05:23.077Z,6.40
2022-11-30T09:07:55.732Z,6.40
2022-11-30T09:10:28.508Z,6.50
2022-11-30T09:13:01.086Z,6.50
2022-11-30T09:15:34.501Z,6.50
2022-11-30T09:18:07.265Z,6.60
2022-11-30T09:20:39.804Z,6.60
2022-11-30T09:23:12.354Z,6.70
2022-11-30T09:25:45.555Z,6.70
2022-11-30T09:28:18.289Z,6.80
2022-11-30T09:30:52.060Z,6.80
2022-11-30T09:33:26.212Z,6.90
2022-11-30T09:36:01.268Z,7.00
2022-11-30T09:38:34.039Z,7.00
2022-11-30T09:41:15.085Z,7.00
2022-11-30T09:43:56.927Z,7.00
2022-11-30T09:46:37.302Z,7.10
2022-11-30T09:49:24.687Z,7.10
2022-11-30T09:52:01.305Z,7.10
2022-11-30T09:54:44.602Z,7.10
2022-11-30T09:57:22.178Z,7.30
2022-11-30T09:59:59.260Z,7.30
2022-11-30T10:02:38.391Z,7.40
2022-11-30T10:05:17.131Z,7.50
2022-11-30T10:08:00.247Z,7.70
2022-11-30T10:10:51.374Z,7.90
2022-11-30T10:13:30.803Z,8.00
2022-11-30T10:16:11.046Z,8.10
2022-11-30T10:18:52.405Z,8.20
2022-11-30T10:21:52.560Z,8.30
2022-11-30T10:24:53.176Z,8.40
2022-11-30T10:27:37.224Z,8.40
2022-11-30T10:30:20.010Z,8.40
2022-11-30T10:32:59.702Z,8.50
2022-11-30T10:35:41.663Z,8.50
2022-11-30T10:38:21.922Z,8.50
2022-11-30T10:41:02.034Z,8.60
2022-11-30T10:43:44.365Z,8.60
2022-11-30T10:46:26.541Z,8.70
2022-11-30T10:49:08.379Z,8.80
2022-11-30T10:51:44.775Z,8.90
2022-11-30T10:54:21.698Z,9.10
2022-11-30T10:56:54.562Z,9.20
2022-11-30T10:59:41.151Z,9.10
2022-11-30T11:02:46.056Z,9.10
2022-11-30T11:05:30.315Z,9.00
2022-11-30T11:08:20.797Z,8.90
2022-11-30T11:10:53.505Z,8.70
2022-11-30T11:13:43.017Z,8.70
2022-11-30T11:16:15.646Z,8.70
2022-11-30T11:18:57.860Z,8.70
2022-11-30T11:21:30.523Z,8.70
2022-11-30T11:24:10.339Z,8.80
2022-11-30T11:26:51.647Z,8.80
2022-11-30T11:29:32.097Z,8.90
2022-11-30T11:32:23.045Z,9.10
2022-11-30T11:34:59.423Z,9.20
2022-11-30T11:37:38.475Z,9.30
2022-11-30T11:40:16.746Z,9.40
2022-11-30T11:42:54.065Z,9.60
2022-11-30T11:45:32.214Z,9.70
2022-11-30T11:48:12.618Z,9.90
2022-11-30T11:51:08.538Z,10.00
2022-11-30T11:53:59.965Z,10.20
2022-11-30T11:56:37.109Z,10.20
2022-11-30T11:59:11.787Z,10.20
2022-11-30T12:02:03.687Z,10.00
2022-11-30T12:05:10.341Z,9.90
2022-11-30T12:07:50.849Z,9.80
2022-11-30T12:13:27.430Z,9.50
2022-11-30T12:16:01.144Z,9.30
2022-11-30T12:18:47.709Z,9.10
2022-11-30T12:21:30.060Z,8.90
2022-11-30T12:24:13.211Z,8.80
2022-11-30T12:26:51.985Z,8.70
2022-11-30T12:29:30.049Z,8.70
2022-11-30T12:32:25.814Z,8.60
2022-11-30T12:35:15.005Z,8.60
2022-11-30T12:38:07.714Z,8.60
2022-11-30T12:40:56.627Z,8.60
2022-11-30T12:44:00.938Z,8.60
2022-11-30T12:46:56.962Z,8.60
2022-11-30T12:49:36.237Z,8.70
2022-11-30T12:52:25.647Z,8.80
2022-11-30T12:55:20.909Z,8.80
2022-11-30T12:58:10.370Z,8.80
2022-11-30T13:01:05.538Z,8.80
2022-11-30T13:04:09.446Z,8.90
2022-11-30T13:06:49.136Z,8.90
2022-11-30T13:09:31.961Z,8.90
2022-11-30T13:12:12.516Z,8.80
2022-11-30T13:14:47.587Z,8.70
2022-11-30T13:17:20.896Z,8.70
2022-11-30T13:20:00.534Z,8.70
2022-11-30T13:22:57.105Z,8.70
2022-11-30T13:28:49.407Z,8.60
2022-11-30T13:31:27.682Z,8.60
2022-11-30T13:34:01.166Z,8.60
2022-11-30T13:36:50.525Z,8.60
2022-11-30T13:39:25.399Z,8.60
2022-11-30T13:42:04.023Z,8.50
2022-11-30T13:44:40.288Z,8.50
2022-11-30T13:47:29.051Z,8.50
2022-11-30T13:50:22.790Z,8.50
2022-11-30T13:52:59.647Z,8.50
2022-11-30T13:55:50.434Z,8.50
2022-11-30T13:58:23.636Z,8.50
2022-11-30T14:01:17.095Z,8.40
2022-11-30T14:04:21.448Z,8.40
2022-11-30T14:06:56.629Z,8.40
2022-11-30T14:10:00.772Z,8.40
2022-11-30T14:12:35.186Z,8.40
2022-11-30T14:15:34.715Z,8.40
2022-11-30T14:18:09.050Z,8.40
2022-11-30T14:20:50.123Z,8.40
2022-11-30T14:23:30.296Z,8.40
2022-11-30T14:26:11.806Z,8.40
2022-11-30T14:28:54.361Z,8.40
2022-11-30T14:31:35.144Z,8.30
2022-11-30T14:34:22.154Z,8.30
2022-11-30T14:37:00.025Z,8.30
2022-11-30T14:39:36.682Z,8.30
2022-11-30T14:42:26.606Z,8.30
2022-11-30T14:44:59.259Z,8.20
2022-11-30T14:47:34.398Z,8.20
2022-11-30T14:50:07.550Z,8.20
2022-11-30T14:52:44.457Z,8.20
2022-11-30T14:55:35.709Z,8.20
2022-11-30T14:58:41.028Z,8.20
2022-11-30T15:01:19.795Z,8.20
2022-11-30T15:03:56.885Z,8.20
2022-11-30T15:06:33.463Z,8.20
2022-11-30T15:09:13.795Z,8.10
2022-11-30T15:11:50.232Z,8.20
2022-11-30T15:14:23.344Z,8.10
2022-11-30T15:16:58.581Z,8.10
2022-11-30T15:19:32.820Z,8.10
2022-11-30T15:22:06.416Z,8.00
2022-11-30T15:24:40.236Z,8.00
2022-11-30T15:27:19.211Z,8.00
2022-11-30T15:29:59.594Z,7.90
2022-11-30T15:32:32.739Z,7.90
2022-11-30T15:35:06.293Z,7.90
2022-11-30T15:37:42.172Z,7.90
2022-11-30T15:40:18.443Z,7.90
2022-11-30T15:42:51.594Z,7.80
2022-11-30T15:45:31.625Z,7.80
2022-11-30T15:48:30.239Z,7.80
2022-11-30T15:51:04.567Z,7.80
2022-11-30T15:53:53.533Z,7.70
2022-11-30T15:56:29.198Z,7.70
2022-11-30T15:59:05.655Z,7.70
2022-11-30T16:02:14.170Z,7.70
2022-11-30T16:05:10.876Z,7.60
2022-11-30T16:08:00.130Z,7.60
2022-11-30T16:10:37.156Z,7.50
2022-11-30T16:13:21.359Z,7.40
2022-11-30T16:15:54.678Z,7.30
2022-11-30T16:18:29.097Z,7.30
2022-11-30T16:21:03.669Z,7.30
2022-11-30T16:23:37.641Z,7.20
2022-11-30T16:26:35.977Z,7.20
2022-11-30T16:29:07.506Z,7.20
2022-11-30T16:31:40.095Z,7.20
2022-11-30T16:34:13.156Z,7.20
2022-11-30T16:36:45.701Z,7.20
2022-11-30T16:39:18.509Z,7.20
2022-11-30T16:41:51.116Z,7.20
2022-11-30T16:44:26.563Z,7.20
2022-11-30T16:46:59.659Z,7.20
2022-11-30T16:49:32.825Z,7.10
2022-11-30T16:52:05.735Z,7.10
2022-11-30T16:54:38.608Z,7.10
2022-11-30T16:57:11.142Z,7.20
2022-11-30T16:59:43.791Z,7.10
2022-11-30T17:02:21.795Z,7.20
2022-11-30T17:04:56.582Z,7.20
2022-11-30T17:07:29.204Z,7.20
2022-11-30T17:10:02.014Z,7.20
2022-11-30T17:12:35.914Z,7.20
2022-11-30T17:15:19.302Z,7.20
2022-11-30T17:17:51.970Z,7.20
2022-11-30T17:20:25.645Z,7.20
2022-11-30T17:22:58.351Z,7.10
2022-11-30T17:25:32.830Z,7.10
2022-11-30T17:28:05.536Z,7.10
2022-11-30T17:30:40.218Z,7.10
2022-11-30T17:33:12.860Z,7.10
2022-11-30T17:35:46.068Z,7.20
2022-11-30T17:38:19.385Z,7.10
2022-11-30T17:40:52.262Z,7.20
2022-11-30T17:43:26.059Z,7.20
2022-11-30T17:46:04.678Z,7.10
2022-11-30T17:48:39.354Z,7.20
2022-11-30T17:51:13.815Z,7.10
2022-11-30T17:53:47.964Z,7.00
2022-11-30T17:56:20.759Z,7.00
2022-11-30T17:58:53.394Z,7.00
2022-11-30T18:01:28.863Z,7.00
2022-11-30T18:04:02.584Z,7.00
2022-11-30T18:06:35.194Z,7.00
2022-11-30T18:09:07.863Z,7.00
2022-11-30T18:11:40.713Z,7.00
2022-11-30T18:14:13.500Z,7.10
2022-11-30T18:16:46.840Z,7.10
2022-11-30T18:19:19.839Z,7.10
2022-11-30T18:21:52.770Z,7.00
2022-11-30T18:24:25.977Z,7.00
2022-11-30T18:26:59.000Z,7.00
2022-11-30T18:29:31.574Z,7.00
2022-11-30T18:32:04.402Z,7.00
2022-11-30T18:34:37.263Z,7.00
2022-11-30T18:37:10.083Z,7.00
2022-11-30T18:39:42.895Z,7.00
2022-11-30T18:42:17.444Z,7.00
2022-11-30T18:44:50.602Z,7.00
2022-11-30T18:47:23.384Z,7.00
2022-11-30T18:49:55.959Z,7.00
2022-11-30T18:52:29.412Z,7.00
2022-11-30T18:55:03.751Z,7.00
2022-11-30T18:57:36.832Z,7.00
2022-11-30T19:00:10.459Z,7.00
2022-11-30T19:02:45.303Z,6.90
2022-11-30T19:05:34.036Z,6.90
2022-11-30T19:08:12.077Z,6.90
2022-11-30T19:10:45.053Z,6.90
2022-11-30T19:13:18.055Z,6.80
2022-11-30T19:15:51.040Z,6.90
2022-11-30T19:18:23.966Z,6.90
2022-11-30T19:20:57.677Z,6.90
2022-11-30T19:23:30.571Z,6.90
2022-11-30T19:26:06.983Z,6.90
2022-11-30T19:28:42.110Z,6.90
2022-11-30T19:31:19.108Z,6.90
2022-11-30T19:33:55.607Z,6.90
2022-11-30T19:36:30.923Z,6.90
2022-11-30T19:39:04.338Z,6.90
2022-11-30T19:41:37.194Z,6.90
2022-11-30T19:44:14.998Z,6.80
2022-11-30T19:46:47.646Z,6.80
2022-11-30T19:49:20.240Z,6.80
2022-11-30T19:51:52.830Z,6.80
2022-11-30T19:56:43.048Z,6.90
2022-11-30T19:59:15.571Z,6.80
2022-11-30T20:01:48.131Z,6.90
2022-11-30T20:04:21.839Z,6.80
2022-11-30T20:06:55.092Z,6.90
2022-11-30T20:09:28.415Z,6.90
2022-11-30T20:12:01.471Z,6.90
2022-11-30T20:14:34.587Z,6.80
2022-11-30T20:17:08.670Z,6.80
2022-11-30T20:19:41.323Z,6.80
2022-11-30T20:22:14.347Z,6.80
2022-11-30T20:24:47.207Z,6.80
2022-11-30T20:27:24.581Z,6.80
2022-11-30T20:29:58.361Z,6.80
2022-11-30T20:32:31.812Z,6.80
2022-11-30T20:35:05.112Z,6.80
2022-11-30T20:37:37.928Z,6.80
2022-11-30T20:40:11.776Z,6.80
2022-11-30T20:42:44.524Z,6.80
2022-11-30T20:45:17.629Z,6.80
2022-11-30T20:47:50.299Z,6.80
2022-11-30T20:50:23.981Z,6.80
2022-11-30T20:52:56.720Z,6.80
2022-11-30T20:55:29.296Z,6.80
2022-11-30T20:58:01.969Z,6.80
2022-11-30T21:00:34.464Z,6.80
2022-11-30T21:03:07.324Z,6.80
2022-11-30T21:05:40.206Z,6.80
2022-11-30T21:08:12.885Z,6.90
2022-11-30T21:10:48.351Z,6.80
2022-11-30T21:13:21.287Z,6.80
2022-11-30T21:15:54.214Z,6.80
2022-11-30T21:18:30.277Z,6.90
2022-11-30T21:21:13.153Z,6.90
2022-11-30T21:23:48.763Z,6.90
2022-11-30T21:26:27.333Z,6.90
2022-11-30T21:29:06.141Z,6.90
2022-11-30T21:31:39.113Z,6.90
2022-11-30T21:34:12.011Z,6.90
2022-11-30T21:36:44.676Z,6.90
2022-11-30T21:39:17.288Z,6.90
2022-11-30T21:41:49.784Z,6.90
2022-11-30T21:44:22.517Z,6.90
2022-11-30T21:46:55.030Z,6.90
2022-11-30T21:49:28.018Z,6.90
2022-11-30T21:52:00.751Z,6.90
2022-11-30T21:54:33.353Z,6.90
2022-11-30T21:57:06.137Z,6.90
2022-11-30T21:59:38.894Z,6.80
2022-11-30T22:02:12.707Z,6.80
2022-11-30T22:04:45.340Z,6.80
2022-11-30T22:07:17.817Z,6.80
2022-11-30T22:09:51.664Z,6.80
2022-11-30T22:12:24.418Z,6.80
2022-11-30T22:14:56.995Z,6.80
2022-11-30T22:17:29.617Z,6.90
2022-11-30T22:20:02.272Z,6.90
2022-11-30T22:22:34.852Z,6.90
2022-11-30T22:25:08.227Z,6.80
2022-11-30T22:27:40.775Z,6.80
2022-11-30T22:30:13.917Z,6.80
2022-11-30T22:32:46.561Z,6.80
2022-11-30T22:35:19.331Z,6.80
2022-11-30T22:37:51.833Z,6.80
2022-11-30T22:40:25.229Z,6.80
2022-11-30T22:42:58.203Z,6.80
2022-11-30T22:45:33.594Z,6.80
2022-11-30T22:48:06.671Z,6.90
2022-11-30T22:50:40.654Z,6.80
2022-11-30T22:53:13.243Z,6.80
2022-11-30T22:55:48.300Z,6.80
2022-11-30T22:58:21.296Z,6.80
2022-11-30T23:00:55.352Z,6.80
2022-11-30T23:03:28.860Z,6.70
2022-11-30T23:06:01.484Z,6.80
2022-11-30T23:08:34.562Z,6.80
2022-11-30T23:11:11.089Z,6.80
2022-11-30T23:13:44.365Z,6.80
2022-11-30T23:16:17.643Z,6.80
2022-11-30T23:18:54.727Z,6.80
2022-11-30T23:21:30.224Z,6.70
2022-11-30T23:24:05.543Z,6.80
2022-11-30T23:26:38.808Z,6.80
2022-11-30T23:29:14.073Z,6.80
2022-11-30T23:31:47.023Z,6.80
2022-11-30T23:34:22.416Z,6.80
2022-11-30T23:36:55.108Z,6.80
2022-11-30T23:39:27.680Z,6.80
2022-11-30T23:42:00.546Z,6.80
2022-11-30T23:44:33.112Z,6.80
2022-11-30T23:47:06.059Z,6.80
2022-11-30T23:49:38.679Z,6.80
2022-11-30T23:52:11.196Z,6.80
2022-11-30T23:54:43.774Z,6.80
2022-11-30T23:57:16.251Z,7.60
2022-11-30T23:59:48.908Z,6.80
